sensor_id;sensor_type;location;lat;lon;timestamp;P1;durP1;ratioP1;P2;durP2;ratioP2
18905;SDS011;9585;51.018;4.282;2023-06-22T00:00:35;4.40;;;3.60;;
18905;SDS011;9585;51.018;4.282;2023-06-22T00:03:04;5.05;;;3.97;;
18905;SDS011;9585;51.018;4.282;2023-06-22T00:05:32;4.90;;;3.63;;
18905;SDS011;9585;51.018;4.282;2023-06-22T00:08:01;4.32;;;3.22;;
18905;SDS011;9585;51.018;4.282;2023-06-22T00:10:30;4.40;;;3.20;;
18905;SDS011;9585;51.018;4.282;2023-06-22T00:12:57;3.92;;;3.40;;
18905;SDS011;9585;51.018;4.282;2023-06-22T00:15:27;3.78;;;3.08;;
18905;SDS011;9585;51.018;4.282;2023-06-22T00:17:55;5.45;;;3.35;;
18905;SDS011;9585;51.018;4.282;2023-06-22T00:20:24;5.13;;;3.17;;
18905;SDS011;9585;51.018;4.282;2023-06-22T00:22:58;4.50;;;3.10;;
18905;SDS011;9585;51.018;4.282;2023-06-22T00:25:26;3.97;;;3.15;;
18905;SDS011;9585;51.018;4.282;2023-06-22T00:27:55;4.68;;;3.90;;
18905;SDS011;9585;51.018;4.282;2023-06-22T00:30:22;4.97;;;3.95;;
18905;SDS011;9585;51.018;4.282;2023-06-22T00:32:52;5.38;;;4.10;;
18905;SDS011;9585;51.018;4.282;2023-06-22T00:35:20;6.82;;;4.60;;
18905;SDS011;9585;51.018;4.282;2023-06-22T00:37:48;5.63;;;4.57;;
18905;SDS011;9585;51.018;4.282;2023-06-22T00:40:26;4.80;;;4.20;;
18905;SDS011;9585;51.018;4.282;2023-06-22T00:42:54;4.22;;;3.47;;
18905;SDS011;9585;51.018;4.282;2023-06-22T00:45:22;4.68;;;3.20;;
18905;SDS011;9585;51.018;4.282;2023-06-22T00:47:53;5.47;;;3.70;;
18905;SDS011;9585;51.018;4.282;2023-06-22T00:50:25;4.90;;;3.45;;
18905;SDS011;9585;51.018;4.282;2023-06-22T00:52:54;5.55;;;3.70;;
18905;SDS011;9585;51.018;4.282;2023-06-22T00:55:37;4.15;;;3.70;;
18905;SDS011;9585;51.018;4.282;2023-06-22T00:58:08;4.85;;;3.40;;
18905;SDS011;9585;51.018;4.282;2023-06-22T01:00:37;4.18;;;3.58;;
18905;SDS011;9585;51.018;4.282;2023-06-22T01:03:07;5.97;;;3.90;;
18905;SDS011;9585;51.018;4.282;2023-06-22T01:05:35;4.60;;;4.10;;
18905;SDS011;9585;51.018;4.282;2023-06-22T01:08:05;5.35;;;4.15;;
18905;SDS011;9585;51.018;4.282;2023-06-22T01:10:44;4.82;;;4.28;;
18905;SDS011;9585;51.018;4.282;2023-06-22T01:13:24;5.45;;;4.10;;
18905;SDS011;9585;51.018;4.282;2023-06-22T01:15:57;5.03;;;4.30;;
18905;SDS011;9585;51.018;4.282;2023-06-22T01:18:32;4.68;;;4.10;;
18905;SDS011;9585;51.018;4.282;2023-06-22T01:21:02;5.32;;;4.00;;
18905;SDS011;9585;51.018;4.282;2023-06-22T01:23:37;4.50;;;3.70;;
18905;SDS011;9585;51.018;4.282;2023-06-22T01:26:19;4.07;;;3.67;;
18905;SDS011;9585;51.018;4.282;2023-06-22T01:28:55;5.55;;;4.43;;
18905;SDS011;9585;51.018;4.282;2023-06-22T01:31:26;4.85;;;4.15;;
18905;SDS011;9585;51.018;4.282;2023-06-22T01:33:57;5.18;;;3.95;;
18905;SDS011;9585;51.018;4.282;2023-06-22T01:36:27;5.85;;;3.80;;
18905;SDS011;9585;51.018;4.282;2023-06-22T01:38:56;4.43;;;4.03;;
18905;SDS011;9585;51.018;4.282;2023-06-22T01:41:25;7.07;;;4.93;;
18905;SDS011;9585;51.018;4.282;2023-06-22T01:44:09;4.93;;;4.38;;
18905;SDS011;9585;51.018;4.282;2023-06-22T01:46:40;4.72;;;3.65;;
18905;SDS011;9585;51.018;4.282;2023-06-22T01:49:08;4.45;;;3.75;;
18905;SDS011;9585;51.018;4.282;2023-06-22T01:51:36;4.80;;;3.78;;
18905;SDS011;9585;51.018;4.282;2023-06-22T01:54:05;4.78;;;3.88;;
18905;SDS011;9585;51.018;4.282;2023-06-22T01:56:34;6.13;;;4.35;;
18905;SDS011;9585;51.018;4.282;2023-06-22T01:59:04;4.43;;;4.00;;
18905;SDS011;9585;51.018;4.282;2023-06-22T02:01:40;4.40;;;4.00;;
18905;SDS011;9585;51.018;4.282;2023-06-22T02:04:13;4.45;;;3.78;;
18905;SDS011;9585;51.018;4.282;2023-06-22T02:06:45;4.13;;;3.60;;
18905;SDS011;9585;51.018;4.282;2023-06-22T02:09:17;4.35;;;3.95;;
18905;SDS011;9585;51.018;4.282;2023-06-22T02:11:45;4.43;;;4.00;;
18905;SDS011;9585;51.018;4.282;2023-06-22T02:14:16;4.35;;;3.80;;
18905;SDS011;9585;51.018;4.282;2023-06-22T02:16:44;4.55;;;3.83;;
18905;SDS011;9585;51.018;4.282;2023-06-22T02:19:13;4.88;;;3.92;;
18905;SDS011;9585;51.018;4.282;2023-06-22T02:21:56;5.07;;;4.15;;
18905;SDS011;9585;51.018;4.282;2023-06-22T02:24:32;4.30;;;3.30;;
18905;SDS011;9585;51.018;4.282;2023-06-22T02:27:00;4.00;;;3.60;;
18905;SDS011;9585;51.018;4.282;2023-06-22T02:29:30;4.07;;;3.67;;
18905;SDS011;9585;51.018;4.282;2023-06-22T02:32:00;4.88;;;3.08;;
18905;SDS011;9585;51.018;4.282;2023-06-22T02:34:27;4.43;;;3.53;;
18905;SDS011;9585;51.018;4.282;2023-06-22T02:36:55;5.82;;;4.20;;
18905;SDS011;9585;51.018;4.282;2023-06-22T02:39:25;4.25;;;3.65;;
18905;SDS011;9585;51.018;4.282;2023-06-22T02:41:54;4.10;;;3.70;;
18905;SDS011;9585;51.018;4.282;2023-06-22T02:44:21;5.43;;;4.15;;
18905;SDS011;9585;51.018;4.282;2023-06-22T02:46:50;4.47;;;4.07;;
18905;SDS011;9585;51.018;4.282;2023-06-22T02:49:19;4.30;;;3.78;;
18905;SDS011;9585;51.018;4.282;2023-06-22T02:51:47;5.05;;;4.55;;
18905;SDS011;9585;51.018;4.282;2023-06-22T02:54:16;4.20;;;3.78;;
18905;SDS011;9585;51.018;4.282;2023-06-22T02:56:44;4.47;;;3.97;;
18905;SDS011;9585;51.018;4.282;2023-06-22T02:59:11;4.88;;;4.43;;
18905;SDS011;9585;51.018;4.282;2023-06-22T03:01:39;7.65;;;4.43;;
18905;SDS011;9585;51.018;4.282;2023-06-22T03:04:11;5.72;;;4.93;;
18905;SDS011;9585;51.018;4.282;2023-06-22T03:06:41;5.22;;;4.40;;
18905;SDS011;9585;51.018;4.282;2023-06-22T03:09:16;5.65;;;4.28;;
18905;SDS011;9585;51.018;4.282;2023-06-22T03:11:44;4.70;;;4.20;;
18905;SDS011;9585;51.018;4.282;2023-06-22T03:14:14;5.00;;;4.50;;
18905;SDS011;9585;51.018;4.282;2023-06-22T03:16:41;5.82;;;4.78;;
18905;SDS011;9585;51.018;4.282;2023-06-22T03:19:12;4.68;;;4.10;;
18905;SDS011;9585;51.018;4.282;2023-06-22T03:21:39;4.82;;;3.95;;
18905;SDS011;9585;51.018;4.282;2023-06-22T03:24:07;5.50;;;4.72;;
18905;SDS011;9585;51.018;4.282;2023-06-22T03:26:35;4.43;;;3.97;;
18905;SDS011;9585;51.018;4.282;2023-06-22T03:29:02;6.05;;;4.07;;
18905;SDS011;9585;51.018;4.282;2023-06-22T03:31:30;5.13;;;4.22;;
18905;SDS011;9585;51.018;4.282;2023-06-22T03:33:57;4.40;;;4.00;;
18905;SDS011;9585;51.018;4.282;2023-06-22T03:36:27;5.28;;;4.60;;
18905;SDS011;9585;51.018;4.282;2023-06-22T03:38:55;5.65;;;4.25;;
18905;SDS011;9585;51.018;4.282;2023-06-22T03:41:22;4.93;;;4.43;;
18905;SDS011;9585;51.018;4.282;2023-06-22T03:43:53;4.75;;;4.00;;
18905;SDS011;9585;51.018;4.282;2023-06-22T03:46:21;4.15;;;3.75;;
18905;SDS011;9585;51.018;4.282;2023-06-22T03:48:49;3.67;;;3.38;;
18905;SDS011;9585;51.018;4.282;2023-06-22T03:51:19;5.35;;;4.03;;
18905;SDS011;9585;51.018;4.282;2023-06-22T03:53:49;5.93;;;4.72;;
18905;SDS011;9585;51.018;4.282;2023-06-22T03:56:21;6.32;;;5.30;;
18905;SDS011;9585;51.018;4.282;2023-06-22T03:58:51;7.90;;;4.90;;
18905;SDS011;9585;51.018;4.282;2023-06-22T04:01:19;6.15;;;4.93;;
18905;SDS011;9585;51.018;4.282;2023-06-22T04:03:47;4.47;;;4.00;;
18905;SDS011;9585;51.018;4.282;2023-06-22T04:06:15;6.65;;;4.90;;
18905;SDS011;9585;51.018;4.282;2023-06-22T04:08:44;5.50;;;4.60;;
18905;SDS011;9585;51.018;4.282;2023-06-22T04:11:17;5.47;;;4.90;;
18905;SDS011;9585;51.018;4.282;2023-06-22T04:13:45;4.88;;;3.97;;
18905;SDS011;9585;51.018;4.282;2023-06-22T04:16:14;4.30;;;3.65;;
18905;SDS011;9585;51.018;4.282;2023-06-22T04:18:42;5.13;;;3.92;;
18905;SDS011;9585;51.018;4.282;2023-06-22T04:21:10;5.95;;;4.70;;
18905;SDS011;9585;51.018;4.282;2023-06-22T04:23:37;5.47;;;4.68;;
18905;SDS011;9585;51.018;4.282;2023-06-22T04:26:05;4.47;;;3.95;;
18905;SDS011;9585;51.018;4.282;2023-06-22T04:28:35;5.20;;;4.10;;
18905;SDS011;9585;51.018;4.282;2023-06-22T04:31:02;4.40;;;4.00;;
18905;SDS011;9585;51.018;4.282;2023-06-22T04:33:32;5.32;;;4.20;;
18905;SDS011;9585;51.018;4.282;2023-06-22T04:36:00;4.88;;;4.30;;
18905;SDS011;9585;51.018;4.282;2023-06-22T04:38:29;6.38;;;4.88;;
18905;SDS011;9585;51.018;4.282;2023-06-22T04:40:58;3.92;;;3.50;;
18905;SDS011;9585;51.018;4.282;2023-06-22T04:43:27;6.55;;;4.30;;
18905;SDS011;9585;51.018;4.282;2023-06-22T04:45:57;3.92;;;3.53;;
18905;SDS011;9585;51.018;4.282;2023-06-22T04:48:29;5.10;;;3.75;;
18905;SDS011;9585;51.018;4.282;2023-06-22T04:50:58;5.32;;;3.90;;
18905;SDS011;9585;51.018;4.282;2023-06-22T04:53:29;4.82;;;4.03;;
18905;SDS011;9585;51.018;4.282;2023-06-22T04:55:58;4.45;;;3.60;;
18905;SDS011;9585;51.018;4.282;2023-06-22T04:58:26;5.55;;;3.75;;
18905;SDS011;9585;51.018;4.282;2023-06-22T05:00:54;4.93;;;4.05;;
18905;SDS011;9585;51.018;4.282;2023-06-22T05:03:24;4.85;;;3.65;;
18905;SDS011;9585;51.018;4.282;2023-06-22T05:05:52;4.32;;;3.35;;
18905;SDS011;9585;51.018;4.282;2023-06-22T05:08:20;3.70;;;3.40;;
18905;SDS011;9585;51.018;4.282;2023-06-22T05:10:51;4.10;;;3.70;;
18905;SDS011;9585;51.018;4.282;2023-06-22T05:13:19;3.40;;;3.10;;
18905;SDS011;9585;51.018;4.282;2023-06-22T05:15:47;5.63;;;4.03;;
18905;SDS011;9585;51.018;4.282;2023-06-22T05:18:14;3.40;;;3.10;;
18905;SDS011;9585;51.018;4.282;2023-06-22T05:20:43;4.78;;;3.58;;
18905;SDS011;9585;51.018;4.282;2023-06-22T05:23:11;4.90;;;3.55;;
18905;SDS011;9585;51.018;4.282;2023-06-22T05:25:38;3.70;;;3.30;;
18905;SDS011;9585;51.018;4.282;2023-06-22T05:28:06;4.18;;;3.60;;
18905;SDS011;9585;51.018;4.282;2023-06-22T05:30:36;3.75;;;3.45;;
18905;SDS011;9585;51.018;4.282;2023-06-22T05:33:04;4.63;;;3.30;;
18905;SDS011;9585;51.018;4.282;2023-06-22T05:35:31;5.43;;;3.88;;
18905;SDS011;9585;51.018;4.282;2023-06-22T05:38:00;5.18;;;3.90;;
18905;SDS011;9585;51.018;4.282;2023-06-22T05:40:28;4.90;;;4.20;;
18905;SDS011;9585;51.018;4.282;2023-06-22T05:42:55;5.47;;;4.53;;
18905;SDS011;9585;51.018;4.282;2023-06-22T05:45:23;5.72;;;4.88;;
18905;SDS011;9585;51.018;4.282;2023-06-22T05:47:50;6.63;;;5.30;;
18905;SDS011;9585;51.018;4.282;2023-06-22T05:50:18;9.18;;;6.32;;
18905;SDS011;9585;51.018;4.282;2023-06-22T05:52:46;7.32;;;6.15;;
18905;SDS011;9585;51.018;4.282;2023-06-22T05:55:15;6.75;;;6.05;;
18905;SDS011;9585;51.018;4.282;2023-06-22T05:57:44;6.00;;;5.15;;
18905;SDS011;9585;51.018;4.282;2023-06-22T06:00:13;6.57;;;5.85;;
18905;SDS011;9585;51.018;4.282;2023-06-22T06:02:41;7.05;;;5.47;;
18905;SDS011;9585;51.018;4.282;2023-06-22T06:05:10;5.78;;;4.72;;
18905;SDS011;9585;51.018;4.282;2023-06-22T06:07:39;5.95;;;4.47;;
18905;SDS011;9585;51.018;4.282;2023-06-22T06:10:07;6.05;;;5.40;;
18905;SDS011;9585;51.018;4.282;2023-06-22T06:12:40;5.93;;;4.53;;
18905;SDS011;9585;51.018;4.282;2023-06-22T06:15:09;5.75;;;5.10;;
18905;SDS011;9585;51.018;4.282;2023-06-22T06:17:45;6.70;;;5.32;;
18905;SDS011;9585;51.018;4.282;2023-06-22T06:20:13;5.97;;;5.35;;
18905;SDS011;9585;51.018;4.282;2023-06-22T06:22:41;6.85;;;5.82;;
18905;SDS011;9585;51.018;4.282;2023-06-22T06:25:26;5.75;;;5.22;;
18905;SDS011;9585;51.018;4.282;2023-06-22T06:27:58;5.57;;;4.93;;
18905;SDS011;9585;51.018;4.282;2023-06-22T06:30:29;6.72;;;5.68;;
18905;SDS011;9585;51.018;4.282;2023-06-22T06:32:57;7.10;;;6.38;;
18905;SDS011;9585;51.018;4.282;2023-06-22T06:35:27;7.80;;;6.82;;
18905;SDS011;9585;51.018;4.282;2023-06-22T06:37:55;7.28;;;6.15;;
18905;SDS011;9585;51.018;4.282;2023-06-22T06:40:29;8.02;;;6.22;;
18905;SDS011;9585;51.018;4.282;2023-06-22T06:43:02;7.35;;;6.55;;
18905;SDS011;9585;51.018;4.282;2023-06-22T06:45:31;7.50;;;6.75;;
18905;SDS011;9585;51.018;4.282;2023-06-22T06:48:02;7.68;;;6.78;;
18905;SDS011;9585;51.018;4.282;2023-06-22T06:50:35;7.50;;;6.78;;
18905;SDS011;9585;51.018;4.282;2023-06-22T06:53:03;9.20;;;7.75;;
18905;SDS011;9585;51.018;4.282;2023-06-22T06:55:32;11.63;;;10.43;;
18905;SDS011;9585;51.018;4.282;2023-06-22T06:58:02;12.43;;;10.60;;
18905;SDS011;9585;51.018;4.282;2023-06-22T07:00:32;13.18;;;11.05;;
18905;SDS011;9585;51.018;4.282;2023-06-22T07:03:01;11.88;;;10.68;;
18905;SDS011;9585;51.018;4.282;2023-06-22T07:05:28;11.63;;;10.43;;
18905;SDS011;9585;51.018;4.282;2023-06-22T07:07:57;11.48;;;10.35;;
18905;SDS011;9585;51.018;4.282;2023-06-22T07:10:24;14.93;;;12.80;;
18905;SDS011;9585;51.018;4.282;2023-06-22T07:12:54;14.43;;;12.65;;
18905;SDS011;9585;51.018;4.282;2023-06-22T07:15:24;14.65;;;11.95;;
18905;SDS011;9585;51.018;4.282;2023-06-22T07:17:54;15.75;;;12.13;;
18905;SDS011;9585;51.018;4.282;2023-06-22T07:20:33;13.65;;;12.25;;
18905;SDS011;9585;51.018;4.282;2023-06-22T07:23:04;15.00;;;12.73;;
18905;SDS011;9585;51.018;4.282;2023-06-22T07:25:32;16.60;;;12.52;;
18905;SDS011;9585;51.018;4.282;2023-06-22T07:28:01;13.00;;;11.32;;
18905;SDS011;9585;51.018;4.282;2023-06-22T07:30:35;14.45;;;11.80;;
18905;SDS011;9585;51.018;4.282;2023-06-22T07:33:06;14.70;;;13.18;;
18905;SDS011;9585;51.018;4.282;2023-06-22T07:35:37;12.82;;;11.35;;
18905;SDS011;9585;51.018;4.282;2023-06-22T07:38:06;10.43;;;9.13;;
18905;SDS011;9585;51.018;4.282;2023-06-22T07:40:45;13.88;;;11.55;;
18905;SDS011;9585;51.018;4.282;2023-06-22T07:43:18;14.13;;;11.73;;
18905;SDS011;9585;51.018;4.282;2023-06-22T07:45:51;13.98;;;12.57;;
18905;SDS011;9585;51.018;4.282;2023-06-22T07:48:22;14.63;;;12.82;;
18905;SDS011;9585;51.018;4.282;2023-06-22T07:50:49;12.77;;;11.55;;
18905;SDS011;9585;51.018;4.282;2023-06-22T07:53:18;11.82;;;10.73;;
18905;SDS011;9585;51.018;4.282;2023-06-22T07:55:48;13.40;;;12.07;;
18905;SDS011;9585;51.018;4.282;2023-06-22T07:58:20;13.50;;;12.05;;
18905;SDS011;9585;51.018;4.282;2023-06-22T08:00:51;13.07;;;10.57;;
18905;SDS011;9585;51.018;4.282;2023-06-22T08:03:18;12.55;;;11.35;;
18905;SDS011;9585;51.018;4.282;2023-06-22T08:05:48;13.18;;;11.77;;
18905;SDS011;9585;51.018;4.282;2023-06-22T08:08:19;12.77;;;11.48;;
18905;SDS011;9585;51.018;4.282;2023-06-22T08:10:46;13.32;;;11.93;;
18905;SDS011;9585;51.018;4.282;2023-06-22T08:13:14;10.68;;;9.57;;
18905;SDS011;9585;51.018;4.282;2023-06-22T08:15:43;11.27;;;10.15;;
18905;SDS011;9585;51.018;4.282;2023-06-22T08:18:12;9.50;;;8.45;;
18905;SDS011;9585;51.018;4.282;2023-06-22T08:20:44;12.32;;;10.80;;
18905;SDS011;9585;51.018;4.282;2023-06-22T08:23:17;11.90;;;10.73;;
18905;SDS011;9585;51.018;4.282;2023-06-22T08:26:04;10.90;;;9.80;;
18905;SDS011;9585;51.018;4.282;2023-06-22T08:28:38;11.52;;;9.13;;
18905;SDS011;9585;51.018;4.282;2023-06-22T08:31:06;9.77;;;8.63;;
18905;SDS011;9585;51.018;4.282;2023-06-22T08:33:36;12.18;;;10.32;;
18905;SDS011;9585;51.018;4.282;2023-06-22T08:36:04;11.32;;;10.23;;
18905;SDS011;9585;51.018;4.282;2023-06-22T08:38:33;9.95;;;8.93;;
18905;SDS011;9585;51.018;4.282;2023-06-22T08:41:01;11.75;;;9.82;;
18905;SDS011;9585;51.018;4.282;2023-06-22T08:43:28;11.00;;;9.27;;
18905;SDS011;9585;51.018;4.282;2023-06-22T08:45:58;9.57;;;8.57;;
18905;SDS011;9585;51.018;4.282;2023-06-22T08:48:27;10.10;;;9.10;;
18905;SDS011;9585;51.018;4.282;2023-06-22T08:50:56;11.57;;;9.02;;
18905;SDS011;9585;51.018;4.282;2023-06-22T08:53:24;12.05;;;10.20;;
18905;SDS011;9585;51.018;4.282;2023-06-22T08:55:51;9.98;;;8.75;;
18905;SDS011;9585;51.018;4.282;2023-06-22T08:58:21;9.07;;;8.10;;
18905;SDS011;9585;51.018;4.282;2023-06-22T09:00:49;7.25;;;6.47;;
18905;SDS011;9585;51.018;4.282;2023-06-22T09:03:16;8.82;;;7.35;;
18905;SDS011;9585;51.018;4.282;2023-06-22T09:05:45;7.47;;;6.70;;
18905;SDS011;9585;51.018;4.282;2023-06-22T09:08:14;11.18;;;8.43;;
18905;SDS011;9585;51.018;4.282;2023-06-22T09:10:42;11.57;;;7.07;;
18905;SDS011;9585;51.018;4.282;2023-06-22T09:13:09;11.30;;;7.35;;
18905;SDS011;9585;51.018;4.282;2023-06-22T09:15:38;8.48;;;7.68;;
18905;SDS011;9585;51.018;4.282;2023-06-22T09:18:05;11.30;;;10.20;;
18905;SDS011;9585;51.018;4.282;2023-06-22T09:20:35;9.82;;;8.13;;
18905;SDS011;9585;51.018;4.282;2023-06-22T09:23:04;9.20;;;8.25;;
18905;SDS011;9585;51.018;4.282;2023-06-22T09:25:33;6.57;;;5.97;;
18905;SDS011;9585;51.018;4.282;2023-06-22T09:28:00;6.60;;;5.70;;
18905;SDS011;9585;51.018;4.282;2023-06-22T09:30:28;5.25;;;4.65;;
18905;SDS011;9585;51.018;4.282;2023-06-22T09:32:55;6.63;;;6.03;;
18905;SDS011;9585;51.018;4.282;2023-06-22T09:35:23;5.35;;;4.85;;
18905;SDS011;9585;51.018;4.282;2023-06-22T09:37:50;5.72;;;5.22;;
18905;SDS011;9585;51.018;4.282;2023-06-22T09:40:18;5.45;;;4.95;;
18905;SDS011;9585;51.018;4.282;2023-06-22T09:42:47;5.68;;;5.18;;
18905;SDS011;9585;51.018;4.282;2023-06-22T09:45:14;4.80;;;4.40;;
18905;SDS011;9585;51.018;4.282;2023-06-22T09:47:42;8.65;;;7.78;;
18905;SDS011;9585;51.018;4.282;2023-06-22T09:50:09;7.05;;;6.35;;
18905;SDS011;9585;51.018;4.282;2023-06-22T09:52:37;6.80;;;6.15;;
18905;SDS011;9585;51.018;4.282;2023-06-22T09:55:05;8.55;;;7.75;;
18905;SDS011;9585;51.018;4.282;2023-06-22T09:57:33;8.27;;;7.47;;
18905;SDS011;9585;51.018;4.282;2023-06-22T10:00:02;7.72;;;6.47;;
18905;SDS011;9585;51.018;4.282;2023-06-22T10:02:33;9.65;;;7.53;;
18905;SDS011;9585;51.018;4.282;2023-06-22T10:05:01;10.43;;;9.43;;
18905;SDS011;9585;51.018;4.282;2023-06-22T10:07:28;9.50;;;8.60;;
18905;SDS011;9585;51.018;4.282;2023-06-22T10:09:56;10.48;;;8.40;;
18905;SDS011;9585;51.018;4.282;2023-06-22T10:12:23;9.48;;;8.35;;
18905;SDS011;9585;51.018;4.282;2023-06-22T10:14:52;12.02;;;9.90;;
18905;SDS011;9585;51.018;4.282;2023-06-22T10:17:21;11.75;;;10.55;;
18905;SDS011;9585;51.018;4.282;2023-06-22T10:19:48;12.48;;;10.25;;
18905;SDS011;9585;51.018;4.282;2023-06-22T10:22:16;14.18;;;12.68;;
18905;SDS011;9585;51.018;4.282;2023-06-22T10:24:44;14.98;;;12.95;;
18905;SDS011;9585;51.018;4.282;2023-06-22T10:27:11;11.48;;;10.38;;
18905;SDS011;9585;51.018;4.282;2023-06-22T10:29:39;12.60;;;11.30;;
18905;SDS011;9585;51.018;4.282;2023-06-22T10:32:07;14.63;;;12.98;;
18905;SDS011;9585;51.018;4.282;2023-06-22T10:34:38;16.73;;;14.95;;
18905;SDS011;9585;51.018;4.282;2023-06-22T10:37:06;15.35;;;13.75;;
18905;SDS011;9585;51.018;4.282;2023-06-22T10:39:37;14.27;;;12.75;;
18905;SDS011;9585;51.018;4.282;2023-06-22T10:42:07;18.10;;;15.20;;
18905;SDS011;9585;51.018;4.282;2023-06-22T10:44:35;17.00;;;13.77;;
18905;SDS011;9585;51.018;4.282;2023-06-22T10:47:02;16.60;;;13.70;;
18905;SDS011;9585;51.018;4.282;2023-06-22T10:49:30;16.95;;;13.65;;
18905;SDS011;9585;51.018;4.282;2023-06-22T10:51:59;19.08;;;14.95;;
18905;SDS011;9585;51.018;4.282;2023-06-22T10:54:26;16.00;;;13.45;;
18905;SDS011;9585;51.018;4.282;2023-06-22T10:56:54;18.17;;;14.52;;
18905;SDS011;9585;51.018;4.282;2023-06-22T10:59:21;15.73;;;14.13;;
18905;SDS011;9585;51.018;4.282;2023-06-22T11:01:49;17.08;;;14.02;;
18905;SDS011;9585;51.018;4.282;2023-06-22T11:04:17;16.63;;;14.77;;
18905;SDS011;9585;51.018;4.282;2023-06-22T11:06:45;17.20;;;15.32;;
18905;SDS011;9585;51.018;4.282;2023-06-22T11:09:14;19.30;;;15.18;;
18905;SDS011;9585;51.018;4.282;2023-06-22T11:11:45;17.15;;;15.35;;
18905;SDS011;9585;51.018;4.282;2023-06-22T11:14:13;16.17;;;14.48;;
18905;SDS011;9585;51.018;4.282;2023-06-22T11:16:40;17.98;;;16.08;;
18905;SDS011;9585;51.018;4.282;2023-06-22T11:19:07;16.33;;;14.63;;
18905;SDS011;9585;51.018;4.282;2023-06-22T11:21:35;19.67;;;16.27;;
18905;SDS011;9585;51.018;4.282;2023-06-22T11:24:02;18.75;;;16.42;;
18905;SDS011;9585;51.018;4.282;2023-06-22T11:26:32;18.20;;;14.13;;
18905;SDS011;9585;51.018;4.282;2023-06-22T11:29:00;17.05;;;15.27;;
18905;SDS011;9585;51.018;4.282;2023-06-22T11:31:30;16.63;;;15.02;;
18905;SDS011;9585;51.018;4.282;2023-06-22T11:33:57;18.52;;;16.52;;
18905;SDS011;9585;51.018;4.282;2023-06-22T11:36:25;17.55;;;15.57;;
18905;SDS011;9585;51.018;4.282;2023-06-22T11:38:54;17.55;;;15.82;;
18905;SDS011;9585;51.018;4.282;2023-06-22T11:41:21;15.68;;;14.00;;
18905;SDS011;9585;51.018;4.282;2023-06-22T11:43:50;18.17;;;16.35;;
18905;SDS011;9585;51.018;4.282;2023-06-22T11:46:18;19.50;;;17.55;;
18905;SDS011;9585;51.018;4.282;2023-06-22T11:48:45;20.50;;;18.30;;
18905;SDS011;9585;51.018;4.282;2023-06-22T11:51:13;17.95;;;16.05;;
18905;SDS011;9585;51.018;4.282;2023-06-22T11:53:53;17.70;;;16.00;;
18905;SDS011;9585;51.018;4.282;2023-06-22T11:56:21;20.23;;;18.08;;
18905;SDS011;9585;51.018;4.282;2023-06-22T11:58:50;20.02;;;17.98;;
18905;SDS011;9585;51.018;4.282;2023-06-22T12:01:36;18.23;;;16.33;;
18905;SDS011;9585;51.018;4.282;2023-06-22T12:04:04;20.67;;;18.48;;
18905;SDS011;9585;51.018;4.282;2023-06-22T12:06:31;19.75;;;17.40;;
18905;SDS011;9585;51.018;4.282;2023-06-22T12:09:01;24.70;;;19.48;;
18905;SDS011;9585;51.018;4.282;2023-06-22T12:11:29;18.85;;;16.75;;
18905;SDS011;9585;51.018;4.282;2023-06-22T12:13:56;15.88;;;13.98;;
18905;SDS011;9585;51.018;4.282;2023-06-22T12:16:27;16.35;;;14.65;;
18905;SDS011;9585;51.018;4.282;2023-06-22T12:18:56;16.13;;;14.50;;
18905;SDS011;9585;51.018;4.282;2023-06-22T12:21:23;15.68;;;14.15;;
18905;SDS011;9585;51.018;4.282;2023-06-22T12:23:51;16.88;;;15.23;;
18905;SDS011;9585;51.018;4.282;2023-06-22T12:26:18;14.80;;;13.27;;
18905;SDS011;9585;51.018;4.282;2023-06-22T12:28:46;16.15;;;13.60;;
18905;SDS011;9585;51.018;4.282;2023-06-22T12:31:14;14.02;;;12.63;;
18905;SDS011;9585;51.018;4.282;2023-06-22T12:33:42;15.52;;;13.95;;
18905;SDS011;9585;51.018;4.282;2023-06-22T12:36:11;16.77;;;15.07;;
18905;SDS011;9585;51.018;4.282;2023-06-22T12:38:39;14.60;;;13.18;;
18905;SDS011;9585;51.018;4.282;2023-06-22T12:41:06;17.48;;;15.57;;
18905;SDS011;9585;51.018;4.282;2023-06-22T12:43:34;17.48;;;15.65;;
18905;SDS011;9585;51.018;4.282;2023-06-22T12:46:01;15.68;;;14.05;;
18905;SDS011;9585;51.018;4.282;2023-06-22T12:48:29;18.45;;;16.45;;
18905;SDS011;9585;51.018;4.282;2023-06-22T12:50:57;17.25;;;15.45;;
18905;SDS011;9585;51.018;4.282;2023-06-22T12:53:26;17.85;;;15.75;;
18905;SDS011;9585;51.018;4.282;2023-06-22T12:55:53;19.40;;;17.40;;
18905;SDS011;9585;51.018;4.282;2023-06-22T12:58:21;17.77;;;15.88;;
18905;SDS011;9585;51.018;4.282;2023-06-22T13:00:49;18.55;;;16.13;;
18905;SDS011;9585;51.018;4.282;2023-06-22T13:03:16;18.77;;;16.77;;
18905;SDS011;9585;51.018;4.282;2023-06-22T13:05:43;19.17;;;17.17;;
18905;SDS011;9585;51.018;4.282;2023-06-22T13:08:11;19.25;;;17.15;;
18905;SDS011;9585;51.018;4.282;2023-06-22T13:10:41;19.67;;;16.80;;
18905;SDS011;9585;51.018;4.282;2023-06-22T13:13:08;19.67;;;15.48;;
18905;SDS011;9585;51.018;4.282;2023-06-22T13:15:39;16.67;;;15.05;;
18905;SDS011;9585;51.018;4.282;2023-06-22T13:18:07;18.10;;;15.57;;
18905;SDS011;9585;51.018;4.282;2023-06-22T13:20:34;17.20;;;15.35;;
18905;SDS011;9585;51.018;4.282;2023-06-22T13:23:02;17.00;;;15.30;;
18905;SDS011;9585;51.018;4.282;2023-06-22T13:25:29;19.98;;;16.85;;
18905;SDS011;9585;51.018;4.282;2023-06-22T13:27:58;18.45;;;14.90;;
18905;SDS011;9585;51.018;4.282;2023-06-22T13:30:26;17.55;;;15.88;;
18905;SDS011;9585;51.018;4.282;2023-06-22T13:32:53;22.13;;;17.10;;
18905;SDS011;9585;51.018;4.282;2023-06-22T13:35:21;18.60;;;16.20;;
18905;SDS011;9585;51.018;4.282;2023-06-22T13:37:49;18.98;;;16.98;;
18905;SDS011;9585;51.018;4.282;2023-06-22T13:40:16;18.88;;;16.98;;
18905;SDS011;9585;51.018;4.282;2023-06-22T13:42:43;20.75;;;17.98;;
18905;SDS011;9585;51.018;4.282;2023-06-22T13:45:12;18.85;;;16.60;;
18905;SDS011;9585;51.018;4.282;2023-06-22T13:47:42;24.13;;;18.45;;
18905;SDS011;9585;51.018;4.282;2023-06-22T13:50:09;21.50;;;19.33;;
18905;SDS011;9585;51.018;4.282;2023-06-22T13:52:38;21.52;;;19.33;;
18905;SDS011;9585;51.018;4.282;2023-06-22T13:55:05;21.23;;;18.35;;
18905;SDS011;9585;51.018;4.282;2023-06-22T13:57:33;21.52;;;19.23;;
18905;SDS011;9585;51.018;4.282;2023-06-22T14:00:00;22.52;;;19.98;;
18905;SDS011;9585;51.018;4.282;2023-06-22T14:02:30;21.30;;;19.20;;
18905;SDS011;9585;51.018;4.282;2023-06-22T14:04:58;25.27;;;20.40;;
18905;SDS011;9585;51.018;4.282;2023-06-22T14:07:25;21.67;;;19.58;;
18905;SDS011;9585;51.018;4.282;2023-06-22T14:09:53;22.98;;;20.65;;
18905;SDS011;9585;51.018;4.282;2023-06-22T14:12:20;22.95;;;20.58;;
18905;SDS011;9585;51.018;4.282;2023-06-22T14:14:50;23.80;;;20.77;;
18905;SDS011;9585;51.018;4.282;2023-06-22T14:17:18;24.35;;;21.75;;
18905;SDS011;9585;51.018;4.282;2023-06-22T14:19:52;25.83;;;23.02;;
18905;SDS011;9585;51.018;4.282;2023-06-22T14:22:20;27.80;;;23.80;;
18905;SDS011;9585;51.018;4.282;2023-06-22T14:24:48;28.65;;;25.67;;
18905;SDS011;9585;51.018;4.282;2023-06-22T14:27:16;30.77;;;27.25;;
18905;SDS011;9585;51.018;4.282;2023-06-22T14:29:43;27.48;;;24.65;;
18905;SDS011;9585;51.018;4.282;2023-06-22T14:32:10;31.17;;;27.80;;
18905;SDS011;9585;51.018;4.282;2023-06-22T14:34:38;29.83;;;26.63;;
18905;SDS011;9585;51.018;4.282;2023-06-22T14:37:07;31.02;;;27.73;;
18905;SDS011;9585;51.018;4.282;2023-06-22T14:39:35;31.77;;;28.25;;
18905;SDS011;9585;51.018;4.282;2023-06-22T14:42:03;37.67;;;33.65;;
18905;SDS011;9585;51.018;4.282;2023-06-22T14:44:36;29.95;;;26.75;;
18905;SDS011;9585;51.018;4.282;2023-06-22T14:47:03;31.50;;;26.67;;
18905;SDS011;9585;51.018;4.282;2023-06-22T14:49:31;29.15;;;26.00;;
18905;SDS011;9585;51.018;4.282;2023-06-22T14:52:01;28.50;;;25.48;;
18905;SDS011;9585;51.018;4.282;2023-06-22T14:54:30;27.10;;;24.23;;
18905;SDS011;9585;51.018;4.282;2023-06-22T14:56:57;26.45;;;23.65;;
18905;SDS011;9585;51.018;4.282;2023-06-22T14:59:26;27.50;;;24.63;;
18905;SDS011;9585;51.018;4.282;2023-06-22T15:01:53;26.05;;;23.42;;